sensor_id;sensor_type;location;lat;lon;timestamp;pressure;altitude;pressure_sealevel;temperature;humidity
13661;BME280;6903;49.480;11.102;2023-05-20T00:00:05;98082.22;;;14.82;100.00
13661;BME280;6903;49.480;11.102;2023-05-20T00:02:30;98077.34;;;14.78;100.00
13661;BME280;6903;49.480;11.102;2023-05-20T00:04:56;98079.00;;;14.79;100.00
13661;BME280;6903;49.480;11.102;2023-05-20T00:07:21;98100.53;;;14.76;100.00
13661;BME280;6903;49.480;11.102;2023-05-20T00:09:46;98083.06;;;14.83;100.00
13661;BME280;6903;49.480;11.102;2023-05-20T00:12:12;98079.84;;;14.79;100.00
13661;BME280;6903;49.480;11.102;2023-05-20T00:14:37;98074.69;;;14.78;100.00
13661;BME280;6903;49.480;11.102;2023-05-20T00:17:02;98068.28;;;14.80;100.00
13661;BME280;6903;49.480;11.102;2023-05-20T00:19:28;98069.94;;;14.81;100.00
13661;BME280;6903;49.480;11.102;2023-05-20T00:21:53;98070.94;;;14.80;100.00
13661;BME280;6903;49.480;11.102;2023-05-20T00:24:21;98072.44;;;14.83;100.00
13661;BME280;6903;49.480;11.102;2023-05-20T00:26:46;98075.41;;;14.80;100.00
13661;BME280;6903;49.480;11.102;2023-05-20T00:29:12;98072.31;;;14.84;100.00
13661;BME280;6903;49.480;11.102;2023-05-20T00:31:37;98066.28;;;14.82;100.00
13661;BME280;6903;49.480;11.102;2023-05-20T00:34:02;98062.13;;;14.80;100.00
13661;BME280;6903;49.480;11.102;2023-05-20T00:36:28;98066.28;;;14.82;100.00
13661;BME280;6903;49.480;11.102;2023-05-20T00:38:53;98068.28;;;14.80;100.00
13661;BME280;6903;49.480;11.102;2023-05-20T00:41:18;98075.09;;;14.83;100.00
13661;BME280;6903;49.480;11.102;2023-05-20T00:43:43;98070.63;;;14.83;100.00
13661;BME280;6903;49.480;11.102;2023-05-20T00:46:09;98073.59;;;14.80;100.00
13661;BME280;6903;49.480;11.102;2023-05-20T00:48:39;98071.59;;;14.82;100.00
13661;BME280;6903;49.480;11.102;2023-05-20T00:51:06;98066.59;;;14.79;100.00
13661;BME280;6903;49.480;11.102;2023-05-20T00:53:33;98068.28;;;14.80;100.00
13661;BME280;6903;49.480;11.102;2023-05-20T00:55:58;98079.44;;;14.74;100.00
13661;BME280;6903;49.480;11.102;2023-05-20T00:58:24;98071.91;;;14.79;100.00
13661;BME280;6903;49.480;11.102;2023-05-20T01:00:49;98063.09;;;14.79;100.00
13661;BME280;6903;49.480;11.102;2023-05-20T01:03:14;98071.03;;;14.79;100.00
13661;BME280;6903;49.480;11.102;2023-05-20T01:05:40;98063.94;;;14.79;100.00
13661;BME280;6903;49.480;11.102;2023-05-20T01:08:06;98062.41;;;14.77;100.00
13661;BME280;6903;49.480;11.102;2023-05-20T01:10:32;98059.75;;;14.77;100.00
13661;BME280;6903;49.480;11.102;2023-05-20T01:13:03;98056.53;;;14.83;100.00
13661;BME280;6903;49.480;11.102;2023-05-20T01:15:31;98061.13;;;14.81;100.00
13661;BME280;6903;49.480;11.102;2023-05-20T01:18:00;98054.72;;;14.83;100.00
13661;BME280;6903;49.480;11.102;2023-05-20T01:20:27;98053.03;;;14.82;100.00
13661;BME280;6903;49.480;11.102;2023-05-20T01:22:53;98052.22;;;14.72;100.00
13661;BME280;6903;49.480;11.102;2023-05-20T01:25:19;98044.94;;;14.74;100.00
13661;BME280;6903;49.480;11.102;2023-05-20T01:27:45;98035.31;;;14.73;100.00
13661;BME280;6903;49.480;11.102;2023-05-20T01:30:11;98039.50;;;14.76;100.00
13661;BME280;6903;49.480;11.102;2023-05-20T01:32:47;98040.34;;;14.76;100.00
13661;BME280;6903;49.480;11.102;2023-05-20T01:35:15;98044.78;;;14.76;100.00
13661;BME280;6903;49.480;11.102;2023-05-20T01:37:41;98043.28;;;14.73;100.00
13661;BME280;6903;49.480;11.102;2023-05-20T01:40:08;98047.31;;;14.77;100.00
13661;BME280;6903;49.480;11.102;2023-05-20T01:42:34;98035.19;;;14.75;100.00
13661;BME280;6903;49.480;11.102;2023-05-20T01:45:01;98043.28;;;14.73;100.00
13661;BME280;6903;49.480;11.102;2023-05-20T01:47:27;98043.13;;;14.75;100.00
13661;BME280;6903;49.480;11.102;2023-05-20T01:49:52;98042.16;;;14.76;100.00
13661;BME280;6903;49.480;11.102;2023-05-20T01:52:19;98040.03;;;14.79;100.00
13661;BME280;6903;49.480;11.102;2023-05-20T01:54:44;98034.72;;;14.79;100.00
13661;BME280;6903;49.480;11.102;2023-05-20T01:57:16;98038.09;;;14.81;100.00
13661;BME280;6903;49.480;11.102;2023-05-20T01:59:41;98041.19;;;14.77;100.00
13661;BME280;6903;49.480;11.102;2023-05-20T02:02:06;98038.38;;;14.78;100.00
13661;BME280;6903;49.480;11.102;2023-05-20T02:04:32;98038.22;;;14.80;100.00
13661;BME280;6903;49.480;11.102;2023-05-20T02:06:57;98046.34;;;14.78;100.00
13661;BME280;6903;49.480;11.102;2023-05-20T02:09:22;98027.34;;;14.73;100.00
13661;BME280;6903;49.480;11.102;2023-05-20T02:11:47;98024.31;;;14.68;100.00
13661;BME280;6903;49.480;11.102;2023-05-20T02:14:13;98027.25;;;14.65;100.00
13661;BME280;6903;49.480;11.102;2023-05-20T02:16:38;98022.09;;;14.64;100.00
13661;BME280;6903;49.480;11.102;2023-05-20T02:19:03;98016.53;;;14.57;100.00
13661;BME280;6903;49.480;11.102;2023-05-20T02:21:29;98013.31;;;14.54;100.00
13661;BME280;6903;49.480;11.102;2023-05-20T02:23:55;98019.47;;;14.54;100.00
13661;BME280;6903;49.480;11.102;2023-05-20T02:26:20;98015.28;;;14.52;100.00
13661;BME280;6903;49.480;11.102;2023-05-20T02:28:46;98016.72;;;14.46;100.00
13661;BME280;6903;49.480;11.102;2023-05-20T02:31:14;98010.16;;;14.41;100.00
13661;BME280;6903;49.480;11.102;2023-05-20T02:33:40;98013.09;;;14.38;100.00
13661;BME280;6903;49.480;11.102;2023-05-20T02:36:06;98018.41;;;14.28;100.00
13661;BME280;6903;49.480;11.102;2023-05-20T02:38:31;98017.88;;;14.25;100.00
13661;BME280;6903;49.480;11.102;2023-05-20T02:40:57;98013.81;;;14.20;100.00
13661;BME280;6903;49.480;11.102;2023-05-20T02:43:24;98015.75;;;14.18;100.00
13661;BME280;6903;49.480;11.102;2023-05-20T02:45:49;98028.75;;;14.12;100.00
13661;BME280;6903;49.480;11.102;2023-05-20T02:48:14;98031.41;;;14.12;100.00
13661;BME280;6903;49.480;11.102;2023-05-20T02:50:40;98030.97;;;14.07;100.00
13661;BME280;6903;49.480;11.102;2023-05-20T02:53:05;98026.81;;;14.04;100.00
13661;BME280;6903;49.480;11.102;2023-05-20T02:55:33;98029.56;;;14.03;100.00
13661;BME280;6903;49.480;11.102;2023-05-20T02:57:58;98032.81;;;13.97;100.00
13661;BME280;6903;49.480;11.102;2023-05-20T03:00:24;98028.91;;;13.91;100.00
13661;BME280;6903;49.480;11.102;2023-05-20T03:02:52;98026.66;;;13.87;100.00
13661;BME280;6903;49.480;11.102;2023-05-20T03:05:17;98028.22;;;13.89;100.00
13661;BME280;6903;49.480;11.102;2023-05-20T03:07:43;98036.44;;;13.86;100.00
13661;BME280;6903;49.480;11.102;2023-05-20T03:10:10;98025.00;;;13.86;100.00
13661;BME280;6903;49.480;11.102;2023-05-20T03:12:35;98026.28;;;13.82;100.00
13661;BME280;6903;49.480;11.102;2023-05-20T03:15:01;98039.53;;;13.82;100.00
13661;BME280;6903;49.480;11.102;2023-05-20T03:17:26;98032.69;;;13.79;100.00
13661;BME280;6903;49.480;11.102;2023-05-20T03:19:51;98038.41;;;13.84;100.00
13661;BME280;6903;49.480;11.102;2023-05-20T03:22:16;98043.41;;;13.78;100.00
13661;BME280;6903;49.480;11.102;2023-05-20T03:24:42;98042.28;;;13.80;100.00
13661;BME280;6903;49.480;11.102;2023-05-20T03:27:08;98040.63;;;13.79;100.00
13661;BME280;6903;49.480;11.102;2023-05-20T03:29:33;98048.72;;;13.78;100.00
13661;BME280;6903;49.480;11.102;2023-05-20T03:31:58;98037.13;;;13.79;100.00
13661;BME280;6903;49.480;11.102;2023-05-20T03:34:24;98043.56;;;13.76;100.00
13661;BME280;6903;49.480;11.102;2023-05-20T03:36:52;98043.69;;;13.75;100.00
13661;BME280;6903;49.480;11.102;2023-05-20T03:39:17;98047.72;;;13.79;100.00
13661;BME280;6903;49.480;11.102;2023-05-20T03:41:42;98056.38;;;13.81;100.00
13661;BME280;6903;49.480;11.102;2023-05-20T03:44:08;98048.72;;;13.78;100.00
13661;BME280;6903;49.480;11.102;2023-05-20T03:46:33;98049.13;;;13.83;100.00
13661;BME280;6903;49.480;11.102;2023-05-20T03:48:59;98043.00;;;13.82;100.00
13661;BME280;6903;49.480;11.102;2023-05-20T03:51:26;98042.72;;;13.85;100.00
13661;BME280;6903;49.480;11.102;2023-05-20T03:53:51;98035.88;;;13.83;100.00
13661;BME280;6903;49.480;11.102;2023-05-20T03:56:16;98037.97;;;13.89;100.00
13661;BME280;6903;49.480;11.102;2023-05-20T03:58:42;98042.56;;;13.87;100.00
13661;BME280;6903;49.480;11.102;2023-05-20T04:01:07;98037.16;;;13.88;100.00
13661;BME280;6903;49.480;11.102;2023-05-20T04:03:32;98050.81;;;13.84;100.00
13661;BME280;6903;49.480;11.102;2023-05-20T04:05:58;98044.13;;;13.89;100.00
13661;BME280;6903;49.480;11.102;2023-05-20T04:08:23;98056.09;;;13.84;100.00
13661;BME280;6903;49.480;11.102;2023-05-20T04:10:50;98041.59;;;13.88;100.00
13661;BME280;6903;49.480;11.102;2023-05-20T04:13:19;98042.31;;;13.90;100.00
13661;BME280;6903;49.480;11.102;2023-05-20T04:15:44;98049.00;;;13.94;100.00
13661;BME280;6903;49.480;11.102;2023-05-20T04:18:10;98042.03;;;13.93;100.00
13661;BME280;6903;49.480;11.102;2023-05-20T04:20:36;98032.25;;;13.93;100.00
13661;BME280;6903;49.480;11.102;2023-05-20T04:23:01;98034.34;;;13.90;100.00
13661;BME280;6903;49.480;11.102;2023-05-20T04:25:26;98034.22;;;13.91;100.00
13661;BME280;6903;49.480;11.102;2023-05-20T04:27:52;98029.72;;;13.92;100.00
13661;BME280;6903;49.480;11.102;2023-05-20T04:30:18;98030.72;;;13.91;100.00
13661;BME280;6903;49.480;11.102;2023-05-20T04:32:45;98032.94;;;13.86;100.00
13661;BME280;6903;49.480;11.102;2023-05-20T04:35:12;98031.28;;;13.85;100.00
13661;BME280;6903;49.480;11.102;2023-05-20T04:37:37;98026.00;;;13.85;100.00
13661;BME280;6903;49.480;11.102;2023-05-20T04:40:04;98022.50;;;13.84;100.00
13661;BME280;6903;49.480;11.102;2023-05-20T04:42:31;98031.97;;;13.87;100.00
13661;BME280;6903;49.480;11.102;2023-05-20T04:44:57;98037.16;;;13.98;100.00
13661;BME280;6903;49.480;11.102;2023-05-20T04:47:22;98025.09;;;14.13;100.00
13661;BME280;6903;49.480;11.102;2023-05-20T04:49:48;98021.91;;;14.38;100.00
13661;BME280;6903;49.480;11.102;2023-05-20T04:52:14;98040.13;;;14.60;100.00
13661;BME280;6903;49.480;11.102;2023-05-20T04:54:39;98037.38;;;14.79;100.00
13661;BME280;6903;49.480;11.102;2023-05-20T04:57:05;98031.22;;;14.88;100.00
13661;BME280;6903;49.480;11.102;2023-05-20T04:59:31;98033.47;;;14.83;100.00
13661;BME280;6903;49.480;11.102;2023-05-20T05:01:56;98037.78;;;14.84;100.00
13661;BME280;6903;49.480;11.102;2023-05-20T05:04:21;98035.84;;;14.86;100.00
13661;BME280;6903;49.480;11.102;2023-05-20T05:06:48;98036.22;;;14.91;100.00
13661;BME280;6903;49.480;11.102;2023-05-20T05:09:13;98029.31;;;14.98;100.00
13661;BME280;6903;49.480;11.102;2023-05-20T05:11:39;98026.56;;;15.17;100.00
13661;BME280;6903;49.480;11.102;2023-05-20T05:14:04;98022.94;;;15.45;100.00
13661;BME280;6903;49.480;11.102;2023-05-20T05:16:29;98019.25;;;15.74;100.00
13661;BME280;6903;49.480;11.102;2023-05-20T05:18:55;98023.25;;;15.95;100.00
13661;BME280;6903;49.480;11.102;2023-05-20T05:21:20;98026.56;;;16.15;100.00
13661;BME280;6903;49.480;11.102;2023-05-20T05:23:45;98014.28;;;16.39;100.00
13661;BME280;6903;49.480;11.102;2023-05-20T05:26:11;98005.31;;;16.66;100.00
13661;BME280;6903;49.480;11.102;2023-05-20T05:28:36;98038.19;;;16.82;100.00
13661;BME280;6903;49.480;11.102;2023-05-20T05:31:01;98013.34;;;16.74;100.00
13661;BME280;6903;49.480;11.102;2023-05-20T05:33:27;98013.13;;;16.67;100.00
13661;BME280;6903;49.480;11.102;2023-05-20T05:35:52;98009.91;;;16.81;100.00
13661;BME280;6903;49.480;11.102;2023-05-20T05:38:17;98008.47;;;17.03;100.00
13661;BME280;6903;49.480;11.102;2023-05-20T05:40:43;97993.22;;;17.21;100.00
13661;BME280;6903;49.480;11.102;2023-05-20T05:43:08;98003.28;;;17.43;100.00
13661;BME280;6903;49.480;11.102;2023-05-20T05:45:33;98011.06;;;17.29;100.00
13661;BME280;6903;49.480;11.102;2023-05-20T05:47:59;98010.91;;;17.30;100.00
13661;BME280;6903;49.480;11.102;2023-05-20T05:50:24;97997.81;;;17.53;100.00
13661;BME280;6903;49.480;11.102;2023-05-20T05:52:49;98006.50;;;17.55;100.00
13661;BME280;6903;49.480;11.102;2023-05-20T05:55:15;98012.88;;;17.78;100.00
13661;BME280;6903;49.480;11.102;2023-05-20T05:57:40;98007.88;;;17.75;100.00
13661;BME280;6903;49.480;11.102;2023-05-20T06:00:06;97994.38;;;17.84;100.00
13661;BME280;6903;49.480;11.102;2023-05-20T06:02:32;98001.22;;;18.11;100.00
13661;BME280;6903;49.480;11.102;2023-05-20T06:05:01;97999.88;;;18.23;100.00
13661;BME280;6903;49.480;11.102;2023-05-20T06:07:26;98018.91;;;18.20;100.00
13661;BME280;6903;49.480;11.102;2023-05-20T06:09:52;97997.56;;;18.04;100.00
13661;BME280;6903;49.480;11.102;2023-05-20T06:12:17;98000.06;;;17.89;100.00
13661;BME280;6903;49.480;11.102;2023-05-20T06:14:42;97995.88;;;18.11;100.00
13661;BME280;6903;49.480;11.102;2023-05-20T06:17:07;97982.69;;;18.42;100.00
13661;BME280;6903;49.480;11.102;2023-05-20T06:19:33;97979.22;;;18.88;100.00
13661;BME280;6903;49.480;11.102;2023-05-20T06:21:58;97987.16;;;19.12;100.00
13661;BME280;6903;49.480;11.102;2023-05-20T06:24:23;97973.13;;;19.10;100.00
13661;BME280;6903;49.480;11.102;2023-05-20T06:26:49;97977.09;;;19.14;100.00
13661;BME280;6903;49.480;11.102;2023-05-20T06:29:15;97981.16;;;19.02;100.00
13661;BME280;6903;49.480;11.102;2023-05-20T06:31:40;97983.81;;;19.10;100.00
13661;BME280;6903;49.480;11.102;2023-05-20T06:34:06;97977.22;;;19.28;100.00
13661;BME280;6903;49.480;11.102;2023-05-20T06:36:31;97985.28;;;19.51;100.00
13661;BME280;6903;49.480;11.102;2023-05-20T06:38:56;97974.13;;;19.39;100.00
13661;BME280;6903;49.480;11.102;2023-05-20T06:41:21;97978.94;;;19.52;100.00
13661;BME280;6903;49.480;11.102;2023-05-20T06:43:47;97982.31;;;19.68;100.00
13661;BME280;6903;49.480;11.102;2023-05-20T06:46:12;97977.31;;;19.65;100.00
13661;BME280;6903;49.480;11.102;2023-05-20T06:48:38;97988.44;;;20.00;100.00
13661;BME280;6903;49.480;11.102;2023-05-20T06:51:06;97985.03;;;20.06;100.00
13661;BME280;6903;49.480;11.102;2023-05-20T06:53:33;97981.13;;;19.71;100.00
13661;BME280;6903;49.480;11.102;2023-05-20T06:55:58;97969.16;;;19.59;100.00
13661;BME280;6903;49.480;11.102;2023-05-20T06:58:23;97977.19;;;19.82;100.00
13661;BME280;6903;49.480;11.102;2023-05-20T07:00:49;97977.69;;;19.85;100.00
13661;BME280;6903;49.480;11.102;2023-05-20T07:03:14;97965.44;;;19.91;100.00
13661;BME280;6903;49.480;11.102;2023-05-20T07:05:39;97965.13;;;20.45;100.00
13661;BME280;6903;49.480;11.102;2023-05-20T07:08:05;97977.59;;;20.67;100.00
13661;BME280;6903;49.480;11.102;2023-05-20T07:10:30;97961.75;;;20.14;100.00
13661;BME280;6903;49.480;11.102;2023-05-20T07:12:55;97970.00;;;19.82;100.00
13661;BME280;6903;49.480;11.102;2023-05-20T07:15:21;97980.94;;;19.95;100.00
13661;BME280;6903;49.480;11.102;2023-05-20T07:17:46;97976.97;;;19.91;100.00
13661;BME280;6903;49.480;11.102;2023-05-20T07:20:11;97974.59;;;19.73;100.00
13661;BME280;6903;49.480;11.102;2023-05-20T07:22:36;97971.13;;;19.42;100.00
13661;BME280;6903;49.480;11.102;2023-05-20T07:25:02;97956.25;;;19.40;100.00
13661;BME280;6903;49.480;11.102;2023-05-20T07:27:27;97970.25;;;19.73;100.00
13661;BME280;6903;49.480;11.102;2023-05-20T07:29:53;97958.34;;;19.75;100.00
13661;BME280;6903;49.480;11.102;2023-05-20T07:32:18;97967.69;;;19.56;100.00
13661;BME280;6903;49.480;11.102;2023-05-20T07:34:43;97957.41;;;19.45;100.00
13661;BME280;6903;49.480;11.102;2023-05-20T07:37:09;97951.63;;;19.34;100.00
13661;BME280;6903;49.480;11.102;2023-05-20T07:39:36;97947.88;;;19.43;100.00
13661;BME280;6903;49.480;11.102;2023-05-20T07:42:02;97950.84;;;19.48;100.00
13661;BME280;6903;49.480;11.102;2023-05-20T07:44:27;97956.22;;;19.70;100.00
13661;BME280;6903;49.480;11.102;2023-05-20T07:46:52;97951.47;;;19.81;100.00
13661;BME280;6903;49.480;11.102;2023-05-20T07:49:18;97940.81;;;20.32;100.00
13661;BME280;6903;49.480;11.102;2023-05-20T07:51:43;97949.44;;;20.71;100.00
13661;BME280;6903;49.480;11.102;2023-05-20T07:54:08;97937.00;;;21.14;100.00
13661;BME280;6903;49.480;11.102;2023-05-20T07:56:34;97949.72;;;21.41;100.00
13661;BME280;6903;49.480;11.102;2023-05-20T07:58:59;97940.97;;;21.33;100.00
13661;BME280;6903;49.480;11.102;2023-05-20T08:01:25;97939.53;;;21.01;100.00
13661;BME280;6903;49.480;11.102;2023-05-20T08:03:51;97937.69;;;21.01;100.00
13661;BME280;6903;49.480;11.102;2023-05-20T08:06:17;97937.13;;;20.91;100.00
13661;BME280;6903;49.480;11.102;2023-05-20T08:08:45;97933.09;;;20.52;100.00
13661;BME280;6903;49.480;11.102;2023-05-20T08:11:10;97938.16;;;20.90;100.00
13661;BME280;6903;49.480;11.102;2023-05-20T08:13:36;97933.16;;;20.87;100.00
13661;BME280;6903;49.480;11.102;2023-05-20T08:16:01;97928.78;;;21.16;99.79
13661;BME280;6903;49.480;11.102;2023-05-20T08:18:30;97928.44;;;21.61;98.04
13661;BME280;6903;49.480;11.102;2023-05-20T08:20:56;97920.72;;;21.72;95.22
13661;BME280;6903;49.480;11.102;2023-05-20T08:23:23;97926.94;;;21.73;94.84
13661;BME280;6903;49.480;11.102;2023-05-20T08:25:48;97916.88;;;21.60;94.86
13661;BME280;6903;49.480;11.102;2023-05-20T08:28:13;97913.13;;;21.97;93.09
13661;BME280;6903;49.480;11.102;2023-05-20T08:30:39;97919.66;;;22.15;91.37
13661;BME280;6903;49.480;11.102;2023-05-20T08:33:05;97931.03;;;21.90;92.62
13661;BME280;6903;49.480;11.102;2023-05-20T08:35:30;97915.34;;;21.51;94.05
13661;BME280;6903;49.480;11.102;2023-05-20T08:37:56;97917.59;;;21.48;95.37
13661;BME280;6903;49.480;11.102;2023-05-20T08:40:21;97923.97;;;21.47;95.53
13661;BME280;6903;49.480;11.102;2023-05-20T08:42:48;97913.97;;;21.76;94.71
13661;BME280;6903;49.480;11.102;2023-05-20T08:45:19;97916.28;;;22.07;91.50
13661;BME280;6903;49.480;11.102;2023-05-20T08:47:45;97916.44;;;21.78;93.88
13661;BME280;6903;49.480;11.102;2023-05-20T08:50:12;97907.63;;;22.05;93.12
13661;BME280;6903;49.480;11.102;2023-05-20T08:52:42;97914.09;;;22.44;89.80
13661;BME280;6903;49.480;11.102;2023-05-20T08:55:14;97912.34;;;22.30;87.31
13661;BME280;6903;49.480;11.102;2023-05-20T08:57:40;97906.41;;;21.86;89.43
13661;BME280;6903;49.480;11.102;2023-05-20T09:00:11;97904.56;;;21.87;92.05
13661;BME280;6903;49.480;11.102;2023-05-20T09:02:40;97891.25;;;22.27;88.46
13661;BME280;6903;49.480;11.102;2023-05-20T09:05:06;97901.59;;;22.30;84.96
13661;BME280;6903;49.480;11.102;2023-05-20T09:07:33;97909.13;;;22.14;85.63
13661;BME280;6903;49.480;11.102;2023-05-20T09:09:58;97907.38;;;22.55;84.11
13661;BME280;6903;49.480;11.102;2023-05-20T09:12:24;97899.56;;;22.39;85.58
13661;BME280;6903;49.480;11.102;2023-05-20T09:14:49;97901.13;;;22.20;85.56
13661;BME280;6903;49.480;11.102;2023-05-20T09:17:14;97901.56;;;21.96;87.84
13661;BME280;6903;49.480;11.102;2023-05-20T09:19:41;97921.44;;;22.02;87.58
13661;BME280;6903;49.480;11.102;2023-05-20T09:22:07;97915.97;;;21.89;88.25
13661;BME280;6903;49.480;11.102;2023-05-20T09:24:32;97906.00;;;21.68;88.50
13661;BME280;6903;49.480;11.102;2023-05-20T09:26:57;97908.00;;;22.02;89.02
13661;BME280;6903;49.480;11.102;2023-05-20T09:29:24;97910.81;;;22.21;89.40
13661;BME280;6903;49.480;11.102;2023-05-20T09:31:50;97913.22;;;22.65;83.61
13661;BME280;6903;49.480;11.102;2023-05-20T09:34:16;97923.00;;;22.45;85.49
13661;BME280;6903;49.480;11.102;2023-05-20T09:36:43;97908.72;;;22.72;85.03
13661;BME280;6903;49.480;11.102;2023-05-20T09:39:14;97909.91;;;22.70;83.95
13661;BME280;6903;49.480;11.102;2023-05-20T09:44:12;97904.41;;;22.84;84.01
13661;BME280;6903;49.480;11.102;2023-05-20T09:46:40;97904.88;;;22.54;85.28
13661;BME280;6903;49.480;11.102;2023-05-20T09:49:06;97905.09;;;22.99;83.33
13661;BME280;6903;49.480;11.102;2023-05-20T09:51:32;97924.94;;;23.32;81.11
13661;BME280;6903;49.480;11.102;2023-05-20T09:53:58;97901.59;;;23.05;80.95
13661;BME280;6903;49.480;11.102;2023-05-20T09:56:25;97900.63;;;23.13;80.54
13661;BME280;6903;49.480;11.102;2023-05-20T09:58:52;97889.34;;;23.43;79.85
13661;BME280;6903;49.480;11.102;2023-05-20T10:01:22;97894.38;;;23.72;77.90
13661;BME280;6903;49.480;11.102;2023-05-20T10:03:47;97887.25;;;23.45;78.85
13661;BME280;6903;49.480;11.102;2023-05-20T10:09:27;97887.09;;;23.60;78.10
13661;BME280;6903;49.480;11.102;2023-05-20T10:15:17;97871.28;;;23.24;81.06
13661;BME280;6903;49.480;11.102;2023-05-20T10:18:07;97872.63;;;23.87;78.71
13661;BME280;6903;49.480;11.102;2023-05-20T10:20:49;97876.13;;;23.74;77.20
13661;BME280;6903;49.480;11.102;2023-05-20T10:23:26;97879.56;;;23.29;79.10
13661;BME280;6903;49.480;11.102;2023-05-20T10:25:53;97870.69;;;23.29;79.20
13661;BME280;6903;49.480;11.102;2023-05-20T10:28:35;97861.56;;;23.30;80.44
13661;BME280;6903;49.480;11.102;2023-05-20T10:31:01;97872.13;;;23.31;80.21
13661;BME280;6903;49.480;11.102;2023-05-20T10:33:28;97866.78;;;23.44;79.47
13661;BME280;6903;49.480;11.102;2023-05-20T10:35:57;97854.97;;;23.58;79.44
13661;BME280;6903;49.480;11.102;2023-05-20T10:38:22;97853.97;;;23.99;77.85
13661;BME280;6903;49.480;11.102;2023-05-20T10:40:48;97854.78;;;24.25;77.19
13661;BME280;6903;49.480;11.102;2023-05-20T10:43:26;97853.50;;;24.41;74.88
13661;BME280;6903;49.480;11.102;2023-05-20T10:45:56;97847.31;;;24.34;74.13
13661;BME280;6903;49.480;11.102;2023-05-20T10:48:27;97844.78;;;24.45;74.39
13661;BME280;6903;49.480;11.102;2023-05-20T10:50:57;97855.19;;;23.70;74.77
13661;BME280;6903;49.480;11.102;2023-05-20T10:53:25;97845.88;;;23.59;76.01
13661;BME280;6903;49.480;11.102;2023-05-20T10:55:53;97835.31;;;24.17;74.68
13661;BME280;6903;49.480;11.102;2023-05-20T10:58:20;97850.03;;;23.68;75.67
13661;BME280;6903;49.480;11.102;2023-05-20T11:00:52;97842.59;;;23.70;76.52
13661;BME280;6903;49.480;11.102;2023-05-20T11:03:21;97854.97;;;23.58;75.10
13661;BME280;6903;49.480;11.102;2023-05-20T11:05:46;97847.13;;;23.63;75.80
13661;BME280;6903;49.480;11.102;2023-05-20T11:08:12;97839.47;;;23.60;76.72
13661;BME280;6903;49.480;11.102;2023-05-20T11:10:38;97829.75;;;23.86;76.73
13661;BME280;6903;49.480;11.102;2023-05-20T11:13:03;97855.63;;;23.93;76.10
13661;BME280;6903;49.480;11.102;2023-05-20T11:15:33;97823.31;;;23.73;74.84
13661;BME280;6903;49.480;11.102;2023-05-20T11:18:01;97828.72;;;24.00;74.33
13661;BME280;6903;49.480;11.102;2023-05-20T11:20:27;97825.59;;;24.16;74.78
13661;BME280;6903;49.480;11.102;2023-05-20T11:22:53;97828.50;;;24.08;73.92
13661;BME280;6903;49.480;11.102;2023-05-20T11:25:19;97805.66;;;24.23;74.07
13661;BME280;6903;49.480;11.102;2023-05-20T11:27:45;97817.44;;;24.42;74.73
13661;BME280;6903;49.480;11.102;2023-05-20T11:30:12;97816.16;;;24.51;73.71
13661;BME280;6903;49.480;11.102;2023-05-20T11:32:40;97823.22;;;24.45;72.66
13661;BME280;6903;49.480;11.102;2023-05-20T11:35:06;97810.44;;;24.15;73.74
13661;BME280;6903;49.480;11.102;2023-05-20T11:37:32;97810.69;;;23.67;75.35
13661;BME280;6903;49.480;11.102;2023-05-20T11:40:04;97813.97;;;23.89;75.91
13661;BME280;6903;49.480;11.102;2023-05-20T11:42:35;97808.09;;;24.44;73.93
13661;BME280;6903;49.480;11.102;2023-05-20T11:45:00;97810.59;;;24.33;73.67
13661;BME280;6903;49.480;11.102;2023-05-20T11:47:26;97806.63;;;24.48;73.32
13661;BME280;6903;49.480;11.102;2023-05-20T11:49:51;97807.34;;;24.18;74.13
13661;BME280;6903;49.480;11.102;2023-05-20T11:52:17;97798.22;;;23.93;75.35
13661;BME280;6903;49.480;11.102;2023-05-20T11:54:42;97789.09;;;24.13;75.30
13661;BME280;6903;49.480;11.102;2023-05-20T11:57:08;97799.91;;;24.00;75.37
13661;BME280;6903;49.480;11.102;2023-05-20T11:59:35;97803.19;;;23.96;75.57
13661;BME280;6903;49.480;11.102;2023-05-20T12:02:00;97797.78;;;24.28;74.64
13661;BME280;6903;49.480;11.102;2023-05-20T12:04:25;97809.22;;;24.11;74.07
13661;BME280;6903;49.480;11.102;2023-05-20T12:06:51;97805.03;;;24.15;73.57
13661;BME280;6903;49.480;11.102;2023-05-20T12:09:17;97799.44;;;24.23;74.74
13661;BME280;6903;49.480;11.102;2023-05-20T12:11:42;97816.72;;;24.79;73.02
13661;BME280;6903;49.480;11.102;2023-05-20T12:14:09;97803.59;;;25.20;71.40
13661;BME280;6903;49.480;11.102;2023-05-20T12:16:35;97809.69;;;25.09;70.85
13661;BME280;6903;49.480;11.102;2023-05-20T12:19:01;97800.34;;;24.74;72.77
13661;BME280;6903;49.480;11.102;2023-05-20T12:21:29;97814.03;;;24.72;73.45
13661;BME280;6903;49.480;11.102;2023-05-20T12:23:55;97806.56;;;24.68;73.40
13661;BME280;6903;49.480;11.102;2023-05-20T12:26:25;97799.66;;;24.85;72.62
13661;BME280;6903;49.480;11.102;2023-05-20T12:28:51;97806.88;;;24.91;72.52
13661;BME280;6903;49.480;11.102;2023-05-20T12:31:17;97800.19;;;24.49;73.24
13661;BME280;6903;49.480;11.102;2023-05-20T12:33:42;97793.78;;;24.44;73.87
13661;BME280;6903;49.480;11.102;2023-05-20T12:36:07;97794.59;;;24.51;73.90
13661;BME280;6903;49.480;11.102;2023-05-20T12:38:33;97784.78;;;24.69;73.49
13661;BME280;6903;49.480;11.102;2023-05-20T12:40:58;97796.66;;;25.31;72.45
13661;BME280;6903;49.480;11.102;2023-05-20T12:43:23;97805.81;;;25.30;70.81
13661;BME280;6903;49.480;11.102;2023-05-20T12:45:49;97805.91;;;24.85;72.23
13661;BME280;6903;49.480;11.102;2023-05-20T12:48:16;97798.88;;;24.71;73.30
13661;BME280;6903;49.480;11.102;2023-05-20T12:50:41;97788.13;;;24.58;74.17
13661;BME280;6903;49.480;11.102;2023-05-20T12:53:07;97813.84;;;24.67;74.12
13661;BME280;6903;49.480;11.102;2023-05-20T12:55:32;97800.19;;;24.49;73.80